createdAt,value
2022-07-28T00:01:31.156Z,17.80
2022-07-28T00:04:35.383Z,17.80
2022-07-28T00:07:36.209Z,17.80
2022-07-28T00:10:37.158Z,17.70
2022-07-28T00:13:38.626Z,17.70
2022-07-28T00:16:39.608Z,17.70
2022-07-28T00:19:40.959Z,17.70
2022-07-28T00:22:44.045Z,17.60
2022-07-28T00:25:45.236Z,17.60
2022-07-28T00:28:46.491Z,17.50
2022-07-28T00:31:48.122Z,17.60
2022-07-28T00:34:53.574Z,17.60
2022-07-28T00:37:54.675Z,17.50
2022-07-28T00:41:11.805Z,17.50
2022-07-28T00:44:13.600Z,17.40
2022-07-28T00:47:15.463Z,17.40
2022-07-28T00:50:18.523Z,17.50
2022-07-28T00:53:19.456Z,17.50
2022-07-28T00:56:20.828Z,17.40
2022-07-28T00:59:21.631Z,17.40
2022-07-28T01:02:22.801Z,17.30
2022-07-28T01:05:44.149Z,17.20
2022-07-28T01:08:54.084Z,17.20
2022-07-28T01:12:22.979Z,17.20
2022-07-28T01:15:28.207Z,17.20
2022-07-28T01:19:09.851Z,17.10
2022-07-28T01:22:20.820Z,17.10
2022-07-28T01:25:38.741Z,17.10
2022-07-28T01:28:43.022Z,17.00
2022-07-28T01:31:51.473Z,16.90
2022-07-28T01:35:06.178Z,17.00
2022-07-28T01:38:11.985Z,16.90
2022-07-28T01:41:20.077Z,16.90
2022-07-28T01:44:26.760Z,16.80
2022-07-28T01:47:30.275Z,16.80
2022-07-28T01:50:34.165Z,16.70
2022-07-28T01:53:38.434Z,16.60
2022-07-28T01:56:42.690Z,16.60
2022-07-28T01:59:45.524Z,16.60
2022-07-28T02:02:50.511Z,16.60
2022-07-28T02:05:55.387Z,16.60
2022-07-28T02:08:59.917Z,16.50
2022-07-28T02:12:03.129Z,16.50
2022-07-28T02:15:06.373Z,16.50
2022-07-28T02:18:10.557Z,16.40
2022-07-28T02:21:13.769Z,16.30
2022-07-28T02:24:17.743Z,16.20
2022-07-28T02:27:43.877Z,16.10
2022-07-28T02:30:54.392Z,16.20
2022-07-28T02:34:12.258Z,16.30
2022-07-28T02:37:16.166Z,16.20
2022-07-28T02:40:21.813Z,16.00
2022-07-28T02:43:49.914Z,16.10
2022-07-28T02:46:55.408Z,16.10
2022-07-28T02:50:01.942Z,16.20
2022-07-28T02:53:14.865Z,16.20
2022-07-28T02:56:18.427Z,16.20
2022-07-28T02:59:21.675Z,16.10
2022-07-28T03:02:24.330Z,15.90
2022-07-28T03:05:25.938Z,15.70
2022-07-28T03:08:27.243Z,15.50
2022-07-28T03:11:28.213Z,15.40
2022-07-28T03:14:29.442Z,15.50
2022-07-28T03:17:30.800Z,15.60
2022-07-28T03:20:32.462Z,15.50
2022-07-28T03:23:46.572Z,15.60
2022-07-28T03:27:04.934Z,15.70
2022-07-28T03:30:17.033Z,15.40
2022-07-28T03:33:18.755Z,15.10
2022-07-28T03:36:31.247Z,15.00
2022-07-28T03:39:39.160Z,14.90
2022-07-28T03:42:45.345Z,14.70
2022-07-28T03:45:47.947Z,14.80
2022-07-28T03:48:49.042Z,14.80
2022-07-28T03:51:50.192Z,14.90
2022-07-28T03:54:51.032Z,14.70
2022-07-28T03:57:52.975Z,14.60
2022-07-28T04:00:54.677Z,14.50
2022-07-28T04:03:56.012Z,14.40
2022-07-28T04:06:56.996Z,14.50
2022-07-28T04:09:57.816Z,14.20
2022-07-28T04:13:00.226Z,14.30
2022-07-28T04:16:01.001Z,14.50
2022-07-28T04:19:02.515Z,14.50
2022-07-28T04:22:03.836Z,14.50
2022-07-28T04:25:06.014Z,14.80
2022-07-28T04:28:07.105Z,14.90
2022-07-28T04:31:07.959Z,15.00
2022-07-28T04:34:10.015Z,15.00
2022-07-28T04:37:11.077Z,15.20
2022-07-28T04:40:13.319Z,15.20
2022-07-28T04:43:14.849Z,15.40
2022-07-28T04:46:16.129Z,15.50
2022-07-28T04:49:17.612Z,15.70
2022-07-28T04:52:19.353Z,15.80
2022-07-28T04:55:20.681Z,15.80
2022-07-28T04:58:22.684Z,15.90
2022-07-28T05:01:24.680Z,16.10
2022-07-28T05:04:25.749Z,16.10
2022-07-28T05:07:27.057Z,16.20
2022-07-28T05:10:28.033Z,16.30
2022-07-28T05:13:33.814Z,16.50
2022-07-28T05:16:35.253Z,16.30
2022-07-28T05:19:36.642Z,16.20
2022-07-28T05:22:53.758Z,16.30
2022-07-28T05:25:54.836Z,16.40
2022-07-28T05:28:55.870Z,16.50
2022-07-28T05:31:57.243Z,16.50
2022-07-28T05:34:59.575Z,16.60
2022-07-28T05:38:00.542Z,16.70
2022-07-28T05:41:01.838Z,16.80
2022-07-28T05:44:03.204Z,16.80
2022-07-28T05:47:04.585Z,16.90
2022-07-28T05:50:08.987Z,17.00
2022-07-28T05:53:10.292Z,17.30
2022-07-28T05:56:11.495Z,17.50
2022-07-28T05:59:15.009Z,17.50
2022-07-28T06:02:16.144Z,17.70
2022-07-28T06:05:21.242Z,17.70
2022-07-28T06:08:25.268Z,17.90
2022-07-28T06:11:26.194Z,18.10
2022-07-28T06:14:27.650Z,18.10
2022-07-28T06:17:28.756Z,18.30
2022-07-28T06:20:30.369Z,18.40
2022-07-28T06:23:31.355Z,18.20
2022-07-28T06:26:32.114Z,18.10
2022-07-28T06:29:33.251Z,18.40
2022-07-28T06:32:34.013Z,18.50
2022-07-28T06:35:46.529Z,18.50
2022-07-28T06:38:49.822Z,18.50
2022-07-28T06:41:50.745Z,18.50
2022-07-28T06:45:01.284Z,18.60
2022-07-28T06:48:02.394Z,18.80
2022-07-28T06:51:03.351Z,19.10
2022-07-28T06:54:09.290Z,19.10
2022-07-28T06:57:13.824Z,19.30
2022-07-28T07:00:15.310Z,19.40
2022-07-28T07:03:16.541Z,19.70
2022-07-28T07:06:17.631Z,19.50
2022-07-28T07:09:18.455Z,19.70
2022-07-28T07:12:19.453Z,19.80
2022-07-28T07:15:20.601Z,20.00
2022-07-28T07:18:21.387Z,20.10
2022-07-28T07:21:22.893Z,20.00
2022-07-28T07:24:26.719Z,20.20
2022-07-28T07:27:27.612Z,20.30
2022-07-28T07:30:29.236Z,20.30
2022-07-28T07:33:30.474Z,20.50
2022-07-28T07:36:32.240Z,20.80
2022-07-28T07:39:33.901Z,20.90
2022-07-28T07:42:35.045Z,20.90
2022-07-28T07:45:36.585Z,20.80
2022-07-28T07:48:38.147Z,20.90
2022-07-28T07:51:39.310Z,21.10
2022-07-28T07:54:40.399Z,21.00
2022-07-28T07:57:41.515Z,21.30
2022-07-28T08:00:43.003Z,21.30
2022-07-28T08:03:44.918Z,21.40
2022-07-28T08:06:52.899Z,21.80
2022-07-28T08:09:54.592Z,21.60
2022-07-28T08:12:55.483Z,21.40
2022-07-28T08:15:56.350Z,21.60
2022-07-28T08:18:58.609Z,21.90
2022-07-28T08:22:02.065Z,21.90
2022-07-28T08:25:02.886Z,22.00
2022-07-28T08:28:03.929Z,21.90
2022-07-28T08:31:04.853Z,21.80
2022-07-28T08:34:26.163Z,22.00
2022-07-28T08:37:27.300Z,22.30
2022-07-28T08:40:30.287Z,22.30
2022-07-28T08:43:38.586Z,22.30
2022-07-28T08:46:41.420Z,22.60
2022-07-28T08:49:43.355Z,22.90
2022-07-28T08:52:49.064Z,23.00
2022-07-28T08:55:51.793Z,23.10
2022-07-28T08:58:53.480Z,23.10
2022-07-28T09:01:57.782Z,23.60
2022-07-28T09:05:00.026Z,23.40
2022-07-28T09:08:03.103Z,23.60
2022-07-28T09:11:06.361Z,23.60
2022-07-28T09:14:07.349Z,24.00
2022-07-28T09:17:08.351Z,24.10
2022-07-28T09:20:13.224Z,24.30
2022-07-28T09:23:43.493Z,24.40
2022-07-28T09:26:35.580Z,24.90
2022-07-28T09:29:40.389Z,24.80
2022-07-28T09:32:41.664Z,25.10
2022-07-28T09:35:46.003Z,25.00
2022-07-28T09:38:47.771Z,25.20
2022-07-28T09:41:55.828Z,26.10
2022-07-28T09:45:25.658Z,26.10
2022-07-28T09:48:26.913Z,25.90
2022-07-28T09:51:31.805Z,26.80
2022-07-28T09:54:36.122Z,27.00
2022-07-28T09:57:41.533Z,27.30
2022-07-28T10:00:47.252Z,27.00
2022-07-28T10:03:57.755Z,26.80
2022-07-28T10:07:17.403Z,26.70
2022-07-28T10:10:21.393Z,27.10
2022-07-28T10:13:23.230Z,27.70
2022-07-28T10:16:27.699Z,27.60
2022-07-28T10:19:28.906Z,28.50
2022-07-28T10:22:42.877Z,28.20
2022-07-28T10:25:45.603Z,27.90
2022-07-28T10:28:52.528Z,28.60
2022-07-28T10:31:58.071Z,28.80
2022-07-28T10:35:10.551Z,29.60
2022-07-28T10:38:16.901Z,29.90
2022-07-28T10:41:22.100Z,28.40
2022-07-28T10:44:24.654Z,27.50
2022-07-28T10:47:35.926Z,28.70
2022-07-28T10:50:40.107Z,30.10
2022-07-28T10:54:03.903Z,30.60
2022-07-28T10:57:11.034Z,31.70
2022-07-28T11:00:26.343Z,31.20
2022-07-28T11:03:47.727Z,31.40
2022-07-28T11:06:49.298Z,31.60
2022-07-28T11:09:50.899Z,32.00
2022-07-28T11:12:59.386Z,32.30
2022-07-28T11:16:15.952Z,32.30
2022-07-28T11:19:46.776Z,32.20
2022-07-28T11:22:40.158Z,31.80
2022-07-28T11:25:41.798Z,31.20
2022-07-28T11:29:01.125Z,32.70
2022-07-28T11:32:04.814Z,32.20
2022-07-28T11:35:09.107Z,32.90
2022-07-28T11:38:13.097Z,33.30
2022-07-28T11:41:31.518Z,33.30
2022-07-28T11:44:33.799Z,32.90
2022-07-28T11:47:35.749Z,33.00
2022-07-28T11:50:36.593Z,33.10
2022-07-28T11:53:43.415Z,32.80
2022-07-28T11:56:45.461Z,33.10
2022-07-28T11:59:53.579Z,32.80
2022-07-28T12:02:54.424Z,33.50
2022-07-28T12:05:58.681Z,32.80
2022-07-28T12:09:02.607Z,33.30
2022-07-28T12:12:06.335Z,33.60
2022-07-28T12:15:08.213Z,33.00
2022-07-28T12:18:11.874Z,33.80
2022-07-28T12:21:12.791Z,33.80
2022-07-28T12:24:44.964Z,33.10
2022-07-28T12:27:47.546Z,32.50
2022-07-28T12:30:52.138Z,31.70
2022-07-28T12:33:53.719Z,32.70
2022-07-28T12:37:02.516Z,33.40
2022-07-28T12:40:03.741Z,33.60
2022-07-28T12:43:04.666Z,33.00
2022-07-28T12:46:05.448Z,32.90
2022-07-28T12:49:21.955Z,32.70
2022-07-28T12:52:25.355Z,32.80
2022-07-28T12:55:27.249Z,33.00
2022-07-28T12:58:29.066Z,34.40
2022-07-28T13:01:53.209Z,34.80
2022-07-28T13:04:54.719Z,33.40
2022-07-28T13:08:05.683Z,34.40
2022-07-28T13:11:17.312Z,35.70
2022-07-28T13:14:43.767Z,35.60
2022-07-28T13:17:55.243Z,36.00
2022-07-28T13:20:56.298Z,34.60
2022-07-28T13:23:57.094Z,34.10
2022-07-28T13:26:59.531Z,35.00
2022-07-28T13:30:00.908Z,35.80
2022-07-28T13:33:01.871Z,37.00
2022-07-28T13:36:03.125Z,36.70
2022-07-28T13:39:06.707Z,36.20
2022-07-28T13:42:10.521Z,35.00
2022-07-28T13:45:17.098Z,34.70
2022-07-28T13:48:20.858Z,33.90
2022-07-28T13:51:22.408Z,34.40
2022-07-28T13:54:23.714Z,35.00
2022-07-28T13:57:25.239Z,35.40
2022-07-28T14:00:27.778Z,35.10
2022-07-28T14:03:54.874Z,35.30
2022-07-28T14:06:53.414Z,36.00
2022-07-28T14:09:54.385Z,35.70
2022-07-28T14:12:55.623Z,35.80
2022-07-28T14:16:02.473Z,35.50
2022-07-28T14:19:08.623Z,35.90
2022-07-28T14:22:13.795Z,36.20
2022-07-28T14:25:19.728Z,35.70
2022-07-28T14:28:23.586Z,36.80
2022-07-28T14:31:24.952Z,36.10
2022-07-28T14:34:26.245Z,36.50
2022-07-28T14:37:27.157Z,37.40
2022-07-28T14:40:28.100Z,37.90
2022-07-28T14:43:29.201Z,38.10
2022-07-28T14:46:30.225Z,37.50
2022-07-28T14:49:32.319Z,37.50
2022-07-28T14:52:33.452Z,36.60
2022-07-28T14:55:34.491Z,33.90
2022-07-28T14:58:35.562Z,33.40
2022-07-28T15:01:36.628Z,32.60
2022-07-28T15:04:37.703Z,32.20
2022-07-28T15:07:39.348Z,33.00
2022-07-28T15:10:40.453Z,32.60
2022-07-28T15:13:41.765Z,34.10
2022-07-28T15:16:42.960Z,35.90
2022-07-28T15:19:43.951Z,37.70
2022-07-28T15:22:45.330Z,38.70
2022-07-28T15:25:47.643Z,38.70
2022-07-28T15:28:48.775Z,39.80
2022-07-28T15:31:50.084Z,41.30
2022-07-28T15:34:51.396Z,38.00
2022-07-28T15:37:52.340Z,37.80
2022-07-28T15:40:53.170Z,36.50
2022-07-28T15:43:53.980Z,35.00
2022-07-28T15:46:54.983Z,34.20
2022-07-28T15:49:56.248Z,32.70
2022-07-28T15:52:57.493Z,32.90
2022-07-28T15:55:58.196Z,33.40
2022-07-28T15:59:00.883Z,34.00
2022-07-28T16:02:02.869Z,34.10
2022-07-28T16:05:05.097Z,33.50
2022-07-28T16:08:06.678Z,32.70
2022-07-28T16:11:07.967Z,33.20
2022-07-28T16:14:09.652Z,33.00
2022-07-28T16:17:11.809Z,31.70
2022-07-28T16:20:13.329Z,31.20
2022-07-28T16:23:14.359Z,31.00
2022-07-28T16:26:15.689Z,29.20
2022-07-28T16:29:16.498Z,29.00
2022-07-28T16:32:17.405Z,29.20
2022-07-28T16:35:20.023Z,29.10
2022-07-28T16:38:20.908Z,29.00
2022-07-28T16:41:21.923Z,28.50
2022-07-28T16:44:22.881Z,28.40
2022-07-28T16:47:23.727Z,28.80
2022-07-28T16:50:24.632Z,28.20
2022-07-28T16:53:25.941Z,27.80
2022-07-28T16:56:27.709Z,27.50
2022-07-28T16:59:47.995Z,27.20
2022-07-28T17:02:50.664Z,26.90
2022-07-28T17:05:53.706Z,26.90
2022-07-28T17:08:54.514Z,26.90
2022-07-28T17:11:56.002Z,26.90
2022-07-28T17:14:56.848Z,26.80
2022-07-28T17:17:57.882Z,26.90
2022-07-28T17:20:59.189Z,26.80
2022-07-28T17:24:00.189Z,26.80
2022-07-28T17:30:22.221Z,26.80
2022-07-28T17:33:23.538Z,26.70
2022-07-28T17:36:24.590Z,26.60
2022-07-28T17:39:25.842Z,26.60
2022-07-28T17:42:28.377Z,26.20
2022-07-28T17:45:29.612Z,25.80
2022-07-28T17:48:30.907Z,25.50
2022-07-28T17:51:32.166Z,24.90
2022-07-28T17:54:53.340Z,24.30
2022-07-28T17:57:56.499Z,24.50
2022-07-28T18:01:10.399Z,24.30
2022-07-28T18:04:12.863Z,24.00
2022-07-28T18:07:14.458Z,23.20
2022-07-28T18:10:15.820Z,22.70
2022-07-28T18:13:18.507Z,21.40
2022-07-28T18:16:19.505Z,20.50
2022-07-28T18:19:20.933Z,20.10
2022-07-28T18:22:21.591Z,20.10
2022-07-28T18:25:22.458Z,19.80
2022-07-28T18:28:24.184Z,19.80
2022-07-28T18:31:25.500Z,19.50
2022-07-28T18:34:26.377Z,19.40
2022-07-28T18:37:31.034Z,19.30
2022-07-28T18:40:32.034Z,19.10
2022-07-28T18:43:33.472Z,18.90
2022-07-28T18:46:34.590Z,18.90
2022-07-28T18:49:37.285Z,18.80
2022-07-28T18:52:44.390Z,18.90
2022-07-28T18:55:45.511Z,19.00
2022-07-28T18:58:46.858Z,19.00
2022-07-28T19:01:48.806Z,18.90
2022-07-28T19:04:49.931Z,18.90
2022-07-28T19:07:51.327Z,18.80
2022-07-28T19:10:52.783Z,18.70
2022-07-28T19:13:53.991Z,18.90
2022-07-28T19:16:55.852Z,19.10
2022-07-28T19:19:56.937Z,19.20
2022-07-28T19:23:00.779Z,19.20
2022-07-28T19:26:05.710Z,19.10
2022-07-28T19:29:06.816Z,19.00
2022-07-28T19:32:08.073Z,19.10
2022-07-28T19:35:13.729Z,19.00
2022-07-28T19:38:14.474Z,19.00
2022-07-28T19:41:16.570Z,18.80
2022-07-28T19:44:18.376Z,18.50
2022-07-28T19:47:19.797Z,18.50
2022-07-28T19:50:21.952Z,18.50
2022-07-28T19:53:30.961Z,18.30
2022-07-28T19:56:33.840Z,18.30
2022-07-28T19:59:35.460Z,18.30
2022-07-28T20:02:36.282Z,18.40
2022-07-28T20:05:38.819Z,18.40
2022-07-28T20:08:40.582Z,18.40
2022-07-28T20:11:41.727Z,18.30
2022-07-28T20:14:42.998Z,18.30
2022-07-28T20:17:43.999Z,18.20
2022-07-28T20:20:47.623Z,18.10
2022-07-28T20:23:49.284Z,18.20
2022-07-28T20:26:50.433Z,18.30
2022-07-28T20:29:51.257Z,18.30
2022-07-28T20:32:52.289Z,18.20
2022-07-28T20:35:53.680Z,18.20
2022-07-28T20:38:56.447Z,18.30
2022-07-28T20:41:57.702Z,18.30
2022-07-28T20:44:58.934Z,18.40
2022-07-28T20:47:59.834Z,18.50
2022-07-28T20:51:01.100Z,18.40
2022-07-28T20:54:02.343Z,18.50
2022-07-28T20:57:03.067Z,18.20
2022-07-28T21:00:08.295Z,18.10
2022-07-28T21:03:09.475Z,18.10
2022-07-28T21:06:10.189Z,18.10
2022-07-28T21:09:10.974Z,18.00
2022-07-28T21:12:11.970Z,18.00
2022-07-28T21:15:13.417Z,18.00
2022-07-28T21:18:14.613Z,18.00
2022-07-28T21:21:15.951Z,18.00
2022-07-28T21:24:17.224Z,18.00
2022-07-28T21:27:19.755Z,18.10
2022-07-28T21:30:27.571Z,18.00
2022-07-28T21:33:29.000Z,18.00
2022-07-28T21:36:30.834Z,18.10
2022-07-28T21:39:33.458Z,18.00
2022-07-28T21:42:34.434Z,18.10
2022-07-28T21:45:38.308Z,18.10
2022-07-28T21:48:39.928Z,18.10
2022-07-28T21:51:41.281Z,18.10
2022-07-28T21:54:42.451Z,18.10
2022-07-28T21:57:43.518Z,18.10
2022-07-28T22:00:44.987Z,18.20
2022-07-28T22:03:46.227Z,18.10
2022-07-28T22:06:47.025Z,17.70
2022-07-28T22:09:47.882Z,17.70
2022-07-28T22:12:49.709Z,17.70
2022-07-28T22:15:51.218Z,17.70
2022-07-28T22:18:52.595Z,17.80
2022-07-28T22:21:54.176Z,17.70
2022-07-28T22:24:55.482Z,17.60
2022-07-28T22:27:56.701Z,17.60
2022-07-28T22:30:59.094Z,17.70
2022-07-28T22:34:11.610Z,17.70
2022-07-28T22:37:13.341Z,17.80
2022-07-28T22:40:16.267Z,17.80
2022-07-28T22:43:17.481Z,17.80
2022-07-28T22:46:18.323Z,17.70
2022-07-28T22:49:19.711Z,17.80
2022-07-28T22:52:26.123Z,17.80
2022-07-28T22:55:27.083Z,17.80
2022-07-28T22:58:27.819Z,17.70
2022-07-28T23:01:28.750Z,17.60
2022-07-28T23:04:30.145Z,17.60
2022-07-28T23:07:51.190Z,17.70
2022-07-28T23:10:53.206Z,17.70
2022-07-28T23:13:54.233Z,17.70
2022-07-28T23:16:54.955Z,17.60
2022-07-28T23:19:57.939Z,17.60
2022-07-28T23:22:58.743Z,17.70
2022-07-28T23:26:00.077Z,17.60
2022-07-28T23:29:01.416Z,17.70
2022-07-28T23:32:02.490Z,17.60
2022-07-28T23:35:03.988Z,17.60
2022-07-28T23:38:09.009Z,17.40
2022-07-28T23:41:15.347Z,17.40
2022-07-28T23:44:16.759Z,17.30
2022-07-28T23:47:18.196Z,17.30
2022-07-28T23:50:19.849Z,17.30
2022-07-28T23:53:21.709Z,17.30
2022-07-28T23:56:22.685Z,17.20
2022-07-28T23:59:24.967Z,17.00
